sensor_id;sensor_type;location;lat;lon;timestamp;P1;durP1;ratioP1;P2;durP2;ratioP2
80557;SDS011;69901;43.524;-5.636;2023-07-31T00:00:56;10.00;;;2.73;;
80557;SDS011;69901;43.524;-5.636;2023-07-31T00:03:21;10.27;;;3.40;;
80557;SDS011;69901;43.524;-5.636;2023-07-31T00:05:46;10.40;;;3.00;;
80557;SDS011;69901;43.524;-5.636;2023-07-31T00:08:12;10.37;;;3.40;;
80557;SDS011;69901;43.524;-5.636;2023-07-31T00:10:37;9.20;;;2.95;;
80557;SDS011;69901;43.524;-5.636;2023-07-31T00:13:03;8.63;;;3.00;;
80557;SDS011;69901;43.524;-5.636;2023-07-31T00:15:28;8.80;;;2.87;;
80557;SDS011;69901;43.524;-5.636;2023-07-31T00:17:54;7.70;;;2.40;;
80557;SDS011;69901;43.524;-5.636;2023-07-31T00:20:19;9.45;;;2.47;;
80557;SDS011;69901;43.524;-5.636;2023-07-31T00:22:45;10.47;;;3.20;;
80557;SDS011;69901;43.524;-5.636;2023-07-31T00:25:10;8.70;;;2.70;;
80557;SDS011;69901;43.524;-5.636;2023-07-31T00:27:35;8.37;;;2.30;;
80557;SDS011;69901;43.524;-5.636;2023-07-31T00:30:01;7.68;;;2.10;;
80557;SDS011;69901;43.524;-5.636;2023-07-31T00:32:28;9.40;;;2.77;;
80557;SDS011;69901;43.524;-5.636;2023-07-31T00:34:53;10.32;;;3.00;;
80557;SDS011;69901;43.524;-5.636;2023-07-31T00:37:19;9.00;;;2.63;;
80557;SDS011;69901;43.524;-5.636;2023-07-31T00:39:44;9.13;;;2.73;;
80557;SDS011;69901;43.524;-5.636;2023-07-31T00:42:10;9.63;;;3.27;;
80557;SDS011;69901;43.524;-5.636;2023-07-31T00:44:35;9.90;;;2.70;;
80557;SDS011;69901;43.524;-5.636;2023-07-31T00:47:00;9.53;;;2.60;;
80557;SDS011;69901;43.524;-5.636;2023-07-31T00:49:27;9.57;;;3.17;;
80557;SDS011;69901;43.524;-5.636;2023-07-31T00:51:53;7.22;;;2.50;;
80557;SDS011;69901;43.524;-5.636;2023-07-31T00:54:19;7.43;;;2.63;;
80557;SDS011;69901;43.524;-5.636;2023-07-31T00:56:45;9.83;;;3.17;;
80557;SDS011;69901;43.524;-5.636;2023-07-31T00:59:13;9.07;;;2.80;;
80557;SDS011;69901;43.524;-5.636;2023-07-31T01:01:39;10.27;;;3.00;;
80557;SDS011;69901;43.524;-5.636;2023-07-31T01:04:05;9.20;;;2.93;;
80557;SDS011;69901;43.524;-5.636;2023-07-31T01:06:36;8.70;;;2.47;;
80557;SDS011;69901;43.524;-5.636;2023-07-31T01:12:04;9.30;;;3.10;;
80557;SDS011;69901;43.524;-5.636;2023-07-31T01:14:32;11.40;;;3.20;;
80557;SDS011;69901;43.524;-5.636;2023-07-31T01:16:58;9.60;;;2.67;;
80557;SDS011;69901;43.524;-5.636;2023-07-31T01:19:24;8.53;;;2.53;;
80557;SDS011;69901;43.524;-5.636;2023-07-31T01:22:03;8.80;;;2.63;;
80557;SDS011;69901;43.524;-5.636;2023-07-31T01:27:23;9.80;;;2.35;;
80557;SDS011;69901;43.524;-5.636;2023-07-31T01:29:56;7.82;;;2.83;;
80557;SDS011;69901;43.524;-5.636;2023-07-31T01:32:29;9.57;;;2.65;;
80557;SDS011;69901;43.524;-5.636;2023-07-31T01:34:54;9.53;;;3.27;;
80557;SDS011;69901;43.524;-5.636;2023-07-31T01:37:27;8.82;;;3.38;;
80557;SDS011;69901;43.524;-5.636;2023-07-31T01:39:53;8.73;;;2.50;;
80557;SDS011;69901;43.524;-5.636;2023-07-31T01:42:19;10.23;;;3.10;;
80557;SDS011;69901;43.524;-5.636;2023-07-31T01:44:44;7.27;;;2.47;;
80557;SDS011;69901;43.524;-5.636;2023-07-31T01:47:09;8.23;;;2.83;;
80557;SDS011;69901;43.524;-5.636;2023-07-31T01:49:35;7.55;;;2.40;;
80557;SDS011;69901;43.524;-5.636;2023-07-31T01:52:00;10.10;;;2.83;;
80557;SDS011;69901;43.524;-5.636;2023-07-31T01:54:26;8.83;;;2.63;;
80557;SDS011;69901;43.524;-5.636;2023-07-31T01:56:51;8.17;;;2.70;;
80557;SDS011;69901;43.524;-5.636;2023-07-31T01:59:17;9.35;;;3.00;;
80557;SDS011;69901;43.524;-5.636;2023-07-31T02:01:43;8.10;;;2.70;;
80557;SDS011;69901;43.524;-5.636;2023-07-31T02:04:09;9.30;;;2.58;;
80557;SDS011;69901;43.524;-5.636;2023-07-31T02:06:34;8.43;;;2.63;;
80557;SDS011;69901;43.524;-5.636;2023-07-31T02:09:00;10.90;;;2.60;;
80557;SDS011;69901;43.524;-5.636;2023-07-31T02:11:25;8.30;;;2.67;;
80557;SDS011;69901;43.524;-5.636;2023-07-31T02:13:50;8.45;;;2.67;;
80557;SDS011;69901;43.524;-5.636;2023-07-31T02:16:16;8.20;;;2.57;;
80557;SDS011;69901;43.524;-5.636;2023-07-31T02:18:41;8.87;;;2.37;;
80557;SDS011;69901;43.524;-5.636;2023-07-31T02:21:07;8.67;;;2.40;;
80557;SDS011;69901;43.524;-5.636;2023-07-31T02:23:32;8.67;;;2.87;;
80557;SDS011;69901;43.524;-5.636;2023-07-31T02:25:58;7.53;;;2.10;;
80557;SDS011;69901;43.524;-5.636;2023-07-31T02:28:23;8.43;;;2.90;;
80557;SDS011;69901;43.524;-5.636;2023-07-31T02:30:50;8.33;;;2.53;;
80557;SDS011;69901;43.524;-5.636;2023-07-31T02:33:16;8.43;;;2.50;;
80557;SDS011;69901;43.524;-5.636;2023-07-31T02:35:41;8.50;;;2.57;;
80557;SDS011;69901;43.524;-5.636;2023-07-31T02:38:08;9.15;;;3.30;;
80557;SDS011;69901;43.524;-5.636;2023-07-31T02:40:34;9.48;;;3.25;;
80557;SDS011;69901;43.524;-5.636;2023-07-31T02:42:59;8.03;;;2.73;;
80557;SDS011;69901;43.524;-5.636;2023-07-31T02:45:25;10.83;;;2.70;;
80557;SDS011;69901;43.524;-5.636;2023-07-31T02:47:50;10.88;;;2.90;;
80557;SDS011;69901;43.524;-5.636;2023-07-31T02:50:16;9.90;;;3.00;;
80557;SDS011;69901;43.524;-5.636;2023-07-31T02:52:41;8.57;;;2.57;;
80557;SDS011;69901;43.524;-5.636;2023-07-31T02:55:07;11.90;;;2.60;;
80557;SDS011;69901;43.524;-5.636;2023-07-31T02:57:32;8.32;;;2.97;;
80557;SDS011;69901;43.524;-5.636;2023-07-31T02:59:58;8.00;;;2.97;;
80557;SDS011;69901;43.524;-5.636;2023-07-31T03:02:23;11.07;;;2.73;;
80557;SDS011;69901;43.524;-5.636;2023-07-31T03:04:49;10.40;;;3.20;;
80557;SDS011;69901;43.524;-5.636;2023-07-31T03:07:14;6.90;;;2.90;;
80557;SDS011;69901;43.524;-5.636;2023-07-31T03:09:40;8.00;;;2.13;;
80557;SDS011;69901;43.524;-5.636;2023-07-31T03:12:05;8.40;;;2.73;;
80557;SDS011;69901;43.524;-5.636;2023-07-31T03:14:31;6.80;;;2.30;;
80557;SDS011;69901;43.524;-5.636;2023-07-31T03:16:57;8.80;;;2.10;;
80557;SDS011;69901;43.524;-5.636;2023-07-31T03:19:22;7.97;;;2.55;;
80557;SDS011;69901;43.524;-5.636;2023-07-31T03:21:47;6.77;;;2.20;;
80557;SDS011;69901;43.524;-5.636;2023-07-31T03:24:13;9.13;;;2.50;;
80557;SDS011;69901;43.524;-5.636;2023-07-31T03:26:38;7.47;;;2.13;;
80557;SDS011;69901;43.524;-5.636;2023-07-31T03:29:06;7.95;;;2.83;;
80557;SDS011;69901;43.524;-5.636;2023-07-31T03:31:32;8.45;;;2.65;;
80557;SDS011;69901;43.524;-5.636;2023-07-31T03:33:57;7.07;;;3.13;;
80557;SDS011;69901;43.524;-5.636;2023-07-31T03:36:23;8.97;;;2.90;;
80557;SDS011;69901;43.524;-5.636;2023-07-31T03:38:48;7.90;;;2.63;;
80557;SDS011;69901;43.524;-5.636;2023-07-31T03:41:14;8.27;;;2.80;;
80557;SDS011;69901;43.524;-5.636;2023-07-31T03:43:39;7.23;;;2.80;;
80557;SDS011;69901;43.524;-5.636;2023-07-31T03:46:05;9.03;;;2.60;;
80557;SDS011;69901;43.524;-5.636;2023-07-31T03:48:30;6.97;;;2.30;;
80557;SDS011;69901;43.524;-5.636;2023-07-31T03:50:56;7.60;;;2.77;;
80557;SDS011;69901;43.524;-5.636;2023-07-31T03:53:21;7.43;;;2.17;;
80557;SDS011;69901;43.524;-5.636;2023-07-31T03:55:46;8.43;;;2.23;;
80557;SDS011;69901;43.524;-5.636;2023-07-31T03:58:12;9.07;;;2.38;;
80557;SDS011;69901;43.524;-5.636;2023-07-31T04:00:37;8.03;;;2.17;;
80557;SDS011;69901;43.524;-5.636;2023-07-31T04:03:04;11.25;;;2.47;;
80557;SDS011;69901;43.524;-5.636;2023-07-31T04:05:31;8.60;;;2.50;;
80557;SDS011;69901;43.524;-5.636;2023-07-31T04:07:57;9.90;;;2.80;;
80557;SDS011;69901;43.524;-5.636;2023-07-31T04:10:22;9.43;;;2.37;;
80557;SDS011;69901;43.524;-5.636;2023-07-31T04:12:48;9.60;;;2.63;;
80557;SDS011;69901;43.524;-5.636;2023-07-31T04:15:13;7.53;;;2.58;;
80557;SDS011;69901;43.524;-5.636;2023-07-31T04:17:39;6.73;;;2.10;;
80557;SDS011;69901;43.524;-5.636;2023-07-31T04:20:04;7.40;;;3.13;;
80557;SDS011;69901;43.524;-5.636;2023-07-31T04:22:30;7.63;;;2.65;;
80557;SDS011;69901;43.524;-5.636;2023-07-31T04:24:56;8.07;;;2.67;;
80557;SDS011;69901;43.524;-5.636;2023-07-31T04:27:21;7.78;;;2.45;;
80557;SDS011;69901;43.524;-5.636;2023-07-31T04:29:47;10.83;;;2.63;;
80557;SDS011;69901;43.524;-5.636;2023-07-31T04:32:12;8.57;;;2.63;;
80557;SDS011;69901;43.524;-5.636;2023-07-31T04:34:38;8.57;;;3.00;;
80557;SDS011;69901;43.524;-5.636;2023-07-31T04:37:03;7.97;;;1.93;;
80557;SDS011;69901;43.524;-5.636;2023-07-31T04:39:29;7.00;;;2.53;;
80557;SDS011;69901;43.524;-5.636;2023-07-31T04:41:54;7.43;;;2.60;;
80557;SDS011;69901;43.524;-5.636;2023-07-31T04:44:20;7.82;;;2.13;;
80557;SDS011;69901;43.524;-5.636;2023-07-31T04:46:45;7.83;;;2.00;;
80557;SDS011;69901;43.524;-5.636;2023-07-31T04:49:11;8.67;;;2.30;;
80557;SDS011;69901;43.524;-5.636;2023-07-31T04:51:36;7.28;;;2.38;;
80557;SDS011;69901;43.524;-5.636;2023-07-31T04:54:02;6.53;;;2.33;;
80557;SDS011;69901;43.524;-5.636;2023-07-31T04:56:27;7.17;;;2.63;;
80557;SDS011;69901;43.524;-5.636;2023-07-31T04:58:53;8.90;;;2.42;;
80557;SDS011;69901;43.524;-5.636;2023-07-31T05:01:18;7.67;;;2.37;;
80557;SDS011;69901;43.524;-5.636;2023-07-31T05:03:44;8.67;;;2.90;;
80557;SDS011;69901;43.524;-5.636;2023-07-31T05:06:09;7.40;;;2.33;;
80557;SDS011;69901;43.524;-5.636;2023-07-31T05:08:35;7.15;;;2.28;;
80557;SDS011;69901;43.524;-5.636;2023-07-31T05:11:00;8.20;;;2.57;;
80557;SDS011;69901;43.524;-5.636;2023-07-31T05:13:25;10.27;;;2.40;;
80557;SDS011;69901;43.524;-5.636;2023-07-31T05:15:51;7.77;;;2.57;;
80557;SDS011;69901;43.524;-5.636;2023-07-31T05:18:16;7.72;;;2.35;;
80557;SDS011;69901;43.524;-5.636;2023-07-31T05:20:42;8.53;;;2.73;;
80557;SDS011;69901;43.524;-5.636;2023-07-31T05:23:08;9.25;;;2.67;;
80557;SDS011;69901;43.524;-5.636;2023-07-31T05:25:34;10.87;;;2.80;;
80557;SDS011;69901;43.524;-5.636;2023-07-31T05:27:59;8.88;;;2.70;;
80557;SDS011;69901;43.524;-5.636;2023-07-31T05:30:25;10.80;;;2.93;;
80557;SDS011;69901;43.524;-5.636;2023-07-31T05:32:51;14.43;;;4.43;;
80557;SDS011;69901;43.524;-5.636;2023-07-31T05:35:16;8.93;;;2.90;;
80557;SDS011;69901;43.524;-5.636;2023-07-31T05:37:42;10.47;;;2.93;;
80557;SDS011;69901;43.524;-5.636;2023-07-31T05:40:07;12.23;;;3.50;;
80557;SDS011;69901;43.524;-5.636;2023-07-31T05:42:33;8.40;;;2.90;;
80557;SDS011;69901;43.524;-5.636;2023-07-31T05:44:59;8.77;;;2.90;;
80557;SDS011;69901;43.524;-5.636;2023-07-31T05:47:25;10.37;;;3.23;;
80557;SDS011;69901;43.524;-5.636;2023-07-31T05:49:50;9.57;;;3.77;;
80557;SDS011;69901;43.524;-5.636;2023-07-31T05:52:18;10.38;;;3.10;;
80557;SDS011;69901;43.524;-5.636;2023-07-31T05:54:44;9.80;;;3.35;;
80557;SDS011;69901;43.524;-5.636;2023-07-31T05:57:11;9.33;;;2.83;;
80557;SDS011;69901;43.524;-5.636;2023-07-31T05:59:36;9.60;;;3.50;;
80557;SDS011;69901;43.524;-5.636;2023-07-31T06:02:02;10.80;;;3.17;;
80557;SDS011;69901;43.524;-5.636;2023-07-31T06:04:27;10.87;;;3.50;;
80557;SDS011;69901;43.524;-5.636;2023-07-31T06:06:53;11.17;;;3.43;;
80557;SDS011;69901;43.524;-5.636;2023-07-31T06:09:19;14.03;;;4.33;;
80557;SDS011;69901;43.524;-5.636;2023-07-31T06:11:45;11.05;;;3.63;;
80557;SDS011;69901;43.524;-5.636;2023-07-31T06:14:11;8.80;;;3.78;;
80557;SDS011;69901;43.524;-5.636;2023-07-31T06:16:36;9.63;;;3.40;;
80557;SDS011;69901;43.524;-5.636;2023-07-31T06:19:02;13.77;;;4.03;;
80557;SDS011;69901;43.524;-5.636;2023-07-31T06:21:27;10.80;;;3.93;;
80557;SDS011;69901;43.524;-5.636;2023-07-31T06:23:53;9.97;;;3.77;;
80557;SDS011;69901;43.524;-5.636;2023-07-31T06:26:18;10.10;;;3.15;;
80557;SDS011;69901;43.524;-5.636;2023-07-31T06:28:44;9.40;;;3.40;;
80557;SDS011;69901;43.524;-5.636;2023-07-31T06:31:09;10.40;;;3.07;;
80557;SDS011;69901;43.524;-5.636;2023-07-31T06:33:35;9.77;;;3.57;;
80557;SDS011;69901;43.524;-5.636;2023-07-31T06:36:00;10.55;;;3.42;;
80557;SDS011;69901;43.524;-5.636;2023-07-31T06:38:26;9.97;;;3.40;;
80557;SDS011;69901;43.524;-5.636;2023-07-31T06:40:52;9.75;;;3.47;;
80557;SDS011;69901;43.524;-5.636;2023-07-31T06:43:18;9.47;;;3.50;;
80557;SDS011;69901;43.524;-5.636;2023-07-31T06:45:43;11.40;;;4.38;;
80557;SDS011;69901;43.524;-5.636;2023-07-31T06:48:09;11.97;;;3.83;;
80557;SDS011;69901;43.524;-5.636;2023-07-31T06:50:34;12.97;;;4.30;;
80557;SDS011;69901;43.524;-5.636;2023-07-31T06:53:00;11.82;;;4.22;;
80557;SDS011;69901;43.524;-5.636;2023-07-31T06:55:25;11.90;;;4.60;;
80557;SDS011;69901;43.524;-5.636;2023-07-31T06:57:52;11.77;;;4.45;;
80557;SDS011;69901;43.524;-5.636;2023-07-31T07:00:19;10.57;;;4.28;;
80557;SDS011;69901;43.524;-5.636;2023-07-31T07:02:47;12.63;;;4.07;;
80557;SDS011;69901;43.524;-5.636;2023-07-31T07:05:13;14.13;;;4.93;;
80557;SDS011;69901;43.524;-5.636;2023-07-31T07:07:39;14.15;;;4.30;;
80557;SDS011;69901;43.524;-5.636;2023-07-31T07:10:05;14.15;;;4.57;;
80557;SDS011;69901;43.524;-5.636;2023-07-31T07:12:31;11.77;;;4.87;;
80557;SDS011;69901;43.524;-5.636;2023-07-31T07:14:58;13.98;;;4.35;;
80557;SDS011;69901;43.524;-5.636;2023-07-31T07:17:24;13.90;;;4.00;;
80557;SDS011;69901;43.524;-5.636;2023-07-31T07:19:50;13.23;;;4.50;;
80557;SDS011;69901;43.524;-5.636;2023-07-31T07:22:15;9.10;;;3.87;;
80557;SDS011;69901;43.524;-5.636;2023-07-31T07:24:41;12.60;;;3.60;;
80557;SDS011;69901;43.524;-5.636;2023-07-31T07:27:07;18.10;;;4.70;;
80557;SDS011;69901;43.524;-5.636;2023-07-31T07:29:33;12.47;;;4.13;;
80557;SDS011;69901;43.524;-5.636;2023-07-31T07:31:59;10.13;;;3.40;;
80557;SDS011;69901;43.524;-5.636;2023-07-31T07:34:25;10.35;;;3.13;;
80557;SDS011;69901;43.524;-5.636;2023-07-31T07:36:51;9.47;;;3.50;;
80557;SDS011;69901;43.524;-5.636;2023-07-31T07:39:17;11.10;;;3.63;;
80557;SDS011;69901;43.524;-5.636;2023-07-31T07:41:42;10.73;;;3.43;;
80557;SDS011;69901;43.524;-5.636;2023-07-31T07:44:08;9.60;;;3.57;;
80557;SDS011;69901;43.524;-5.636;2023-07-31T07:46:33;9.57;;;3.77;;
80557;SDS011;69901;43.524;-5.636;2023-07-31T07:48:59;13.48;;;4.03;;
80557;SDS011;69901;43.524;-5.636;2023-07-31T07:51:24;15.83;;;4.53;;
80557;SDS011;69901;43.524;-5.636;2023-07-31T07:53:50;12.97;;;4.30;;
80557;SDS011;69901;43.524;-5.636;2023-07-31T07:56:15;10.95;;;3.85;;
80557;SDS011;69901;43.524;-5.636;2023-07-31T07:58:41;12.77;;;4.27;;
80557;SDS011;69901;43.524;-5.636;2023-07-31T08:01:06;11.40;;;3.80;;
80557;SDS011;69901;43.524;-5.636;2023-07-31T08:03:32;12.20;;;4.20;;
80557;SDS011;69901;43.524;-5.636;2023-07-31T08:06:00;9.52;;;4.18;;
80557;SDS011;69901;43.524;-5.636;2023-07-31T08:08:26;13.13;;;4.15;;
80557;SDS011;69901;43.524;-5.636;2023-07-31T08:10:53;12.33;;;3.83;;
80557;SDS011;69901;43.524;-5.636;2023-07-31T08:13:18;9.02;;;3.65;;
80557;SDS011;69901;43.524;-5.636;2023-07-31T08:15:44;10.80;;;4.20;;
80557;SDS011;69901;43.524;-5.636;2023-07-31T08:18:09;9.17;;;3.57;;
80557;SDS011;69901;43.524;-5.636;2023-07-31T08:20:36;11.10;;;3.65;;
80557;SDS011;69901;43.524;-5.636;2023-07-31T08:23:02;11.60;;;4.40;;
80557;SDS011;69901;43.524;-5.636;2023-07-31T08:25:27;12.77;;;3.77;;
80557;SDS011;69901;43.524;-5.636;2023-07-31T08:27:53;11.53;;;4.10;;
80557;SDS011;69901;43.524;-5.636;2023-07-31T08:30:19;15.48;;;4.35;;
80557;SDS011;69901;43.524;-5.636;2023-07-31T08:32:44;12.20;;;4.77;;
80557;SDS011;69901;43.524;-5.636;2023-07-31T08:35:10;11.30;;;4.20;;
80557;SDS011;69901;43.524;-5.636;2023-07-31T08:37:36;16.10;;;5.27;;
80557;SDS011;69901;43.524;-5.636;2023-07-31T08:40:03;20.95;;;7.57;;
80557;SDS011;69901;43.524;-5.636;2023-07-31T08:42:29;18.13;;;6.97;;
80557;SDS011;69901;43.524;-5.636;2023-07-31T08:44:55;24.50;;;9.27;;
80557;SDS011;69901;43.524;-5.636;2023-07-31T08:47:21;18.17;;;6.83;;
80557;SDS011;69901;43.524;-5.636;2023-07-31T08:49:47;17.50;;;7.35;;
80557;SDS011;69901;43.524;-5.636;2023-07-31T08:52:13;15.30;;;7.22;;
80557;SDS011;69901;43.524;-5.636;2023-07-31T08:54:39;13.55;;;5.40;;
80557;SDS011;69901;43.524;-5.636;2023-07-31T08:57:05;13.23;;;4.53;;
80557;SDS011;69901;43.524;-5.636;2023-07-31T08:59:32;15.43;;;4.53;;
80557;SDS011;69901;43.524;-5.636;2023-07-31T09:02:02;13.45;;;5.20;;
80557;SDS011;69901;43.524;-5.636;2023-07-31T09:04:30;13.10;;;4.90;;
80557;SDS011;69901;43.524;-5.636;2023-07-31T09:06:58;11.95;;;4.03;;
80557;SDS011;69901;43.524;-5.636;2023-07-31T09:09:25;12.73;;;4.95;;
80557;SDS011;69901;43.524;-5.636;2023-07-31T09:11:51;9.80;;;3.67;;
80557;SDS011;69901;43.524;-5.636;2023-07-31T09:14:17;12.18;;;4.20;;
80557;SDS011;69901;43.524;-5.636;2023-07-31T09:16:57;13.27;;;5.57;;
80557;SDS011;69901;43.524;-5.636;2023-07-31T09:19:25;15.00;;;5.07;;
80557;SDS011;69901;43.524;-5.636;2023-07-31T09:22:02;11.77;;;4.78;;
80557;SDS011;69901;43.524;-5.636;2023-07-31T09:24:29;11.87;;;4.57;;
80557;SDS011;69901;43.524;-5.636;2023-07-31T09:26:57;10.02;;;4.00;;
80557;SDS011;69901;43.524;-5.636;2023-07-31T09:29:24;10.18;;;4.53;;
80557;SDS011;69901;43.524;-5.636;2023-07-31T09:31:51;11.48;;;4.97;;
80557;SDS011;69901;43.524;-5.636;2023-07-31T09:34:17;13.70;;;5.20;;
80557;SDS011;69901;43.524;-5.636;2023-07-31T09:36:43;14.82;;;6.95;;
80557;SDS011;69901;43.524;-5.636;2023-07-31T09:39:10;15.40;;;7.07;;
80557;SDS011;69901;43.524;-5.636;2023-07-31T09:41:41;17.17;;;8.40;;
80557;SDS011;69901;43.524;-5.636;2023-07-31T09:44:08;13.95;;;8.50;;
80557;SDS011;69901;43.524;-5.636;2023-07-31T09:46:37;15.20;;;7.40;;
80557;SDS011;69901;43.524;-5.636;2023-07-31T09:49:07;11.88;;;6.07;;
80557;SDS011;69901;43.524;-5.636;2023-07-31T09:51:40;14.98;;;5.43;;
80557;SDS011;69901;43.524;-5.636;2023-07-31T09:54:14;11.98;;;5.60;;
80557;SDS011;69901;43.524;-5.636;2023-07-31T09:56:43;13.63;;;5.47;;
80557;SDS011;69901;43.524;-5.636;2023-07-31T09:59:14;14.37;;;6.63;;
80557;SDS011;69901;43.524;-5.636;2023-07-31T10:01:42;13.93;;;5.88;;
80557;SDS011;69901;43.524;-5.636;2023-07-31T10:04:10;15.63;;;7.20;;
80557;SDS011;69901;43.524;-5.636;2023-07-31T10:06:36;12.30;;;6.13;;
80557;SDS011;69901;43.524;-5.636;2023-07-31T10:09:07;13.27;;;5.70;;
80557;SDS011;69901;43.524;-5.636;2023-07-31T10:11:47;12.90;;;5.47;;
80557;SDS011;69901;43.524;-5.636;2023-07-31T10:14:18;12.95;;;4.72;;
80557;SDS011;69901;43.524;-5.636;2023-07-31T10:16:45;14.25;;;4.65;;
80557;SDS011;69901;43.524;-5.636;2023-07-31T10:19:11;14.45;;;4.55;;
80557;SDS011;69901;43.524;-5.636;2023-07-31T10:21:37;10.70;;;4.37;;
80557;SDS011;69901;43.524;-5.636;2023-07-31T10:24:03;14.27;;;5.00;;
80557;SDS011;69901;43.524;-5.636;2023-07-31T10:26:30;12.13;;;4.82;;
80557;SDS011;69901;43.524;-5.636;2023-07-31T10:28:57;11.50;;;4.23;;
80557;SDS011;69901;43.524;-5.636;2023-07-31T10:31:23;9.95;;;3.63;;
80557;SDS011;69901;43.524;-5.636;2023-07-31T10:33:50;11.07;;;4.05;;
80557;SDS011;69901;43.524;-5.636;2023-07-31T10:36:18;8.98;;;3.95;;
80557;SDS011;69901;43.524;-5.636;2023-07-31T10:38:45;12.43;;;4.18;;
80557;SDS011;69901;43.524;-5.636;2023-07-31T10:41:11;12.10;;;4.00;;
80557;SDS011;69901;43.524;-5.636;2023-07-31T10:43:37;10.27;;;3.88;;
80557;SDS011;69901;43.524;-5.636;2023-07-31T10:46:06;9.95;;;3.65;;
80557;SDS011;69901;43.524;-5.636;2023-07-31T10:48:41;12.88;;;4.03;;
80557;SDS011;69901;43.524;-5.636;2023-07-31T10:51:09;9.87;;;3.60;;
80557;SDS011;69901;43.524;-5.636;2023-07-31T10:53:37;12.90;;;3.70;;
80557;SDS011;69901;43.524;-5.636;2023-07-31T10:56:07;14.88;;;4.00;;
80557;SDS011;69901;43.524;-5.636;2023-07-31T10:58:34;10.93;;;3.93;;
80557;SDS011;69901;43.524;-5.636;2023-07-31T11:01:02;9.45;;;3.33;;
80557;SDS011;69901;43.524;-5.636;2023-07-31T11:03:45;14.18;;;3.22;;
80557;SDS011;69901;43.524;-5.636;2023-07-31T11:06:17;13.70;;;3.95;;
80557;SDS011;69901;43.524;-5.636;2023-07-31T11:08:44;17.48;;;4.95;;
80557;SDS011;69901;43.524;-5.636;2023-07-31T11:11:12;9.83;;;3.30;;
80557;SDS011;69901;43.524;-5.636;2023-07-31T11:16:14;13.40;;;3.40;;
80557;SDS011;69901;43.524;-5.636;2023-07-31T11:18:41;11.18;;;3.45;;
80557;SDS011;69901;43.524;-5.636;2023-07-31T11:21:15;10.35;;;3.60;;
80557;SDS011;69901;43.524;-5.636;2023-07-31T11:23:45;10.40;;;3.23;;
80557;SDS011;69901;43.524;-5.636;2023-07-31T11:26:12;11.50;;;2.70;;
80557;SDS011;69901;43.524;-5.636;2023-07-31T11:28:37;11.38;;;3.38;;
80557;SDS011;69901;43.524;-5.636;2023-07-31T11:31:03;8.27;;;3.33;;
80557;SDS011;69901;43.524;-5.636;2023-07-31T11:33:29;9.90;;;3.80;;
80557;SDS011;69901;43.524;-5.636;2023-07-31T11:35:55;9.82;;;3.17;;
80557;SDS011;69901;43.524;-5.636;2023-07-31T11:38:28;10.15;;;3.50;;
80557;SDS011;69901;43.524;-5.636;2023-07-31T11:41:00;10.68;;;4.57;;
80557;SDS011;69901;43.524;-5.636;2023-07-31T11:43:33;10.10;;;2.80;;
80557;SDS011;69901;43.524;-5.636;2023-07-31T11:45:59;12.10;;;3.20;;
80557;SDS011;69901;43.524;-5.636;2023-07-31T11:48:31;12.65;;;3.25;;
80557;SDS011;69901;43.524;-5.636;2023-07-31T11:51:05;10.15;;;3.67;;
80557;SDS011;69901;43.524;-5.636;2023-07-31T11:53:38;9.68;;;3.45;;
80557;SDS011;69901;43.524;-5.636;2023-07-31T11:56:10;10.73;;;3.17;;
80557;SDS011;69901;43.524;-5.636;2023-07-31T11:58:38;10.40;;;3.05;;
80557;SDS011;69901;43.524;-5.636;2023-07-31T12:01:05;8.85;;;3.28;;
80557;SDS011;69901;43.524;-5.636;2023-07-31T12:03:31;10.35;;;3.47;;
80557;SDS011;69901;43.524;-5.636;2023-07-31T12:05:58;10.27;;;3.03;;
80557;SDS011;69901;43.524;-5.636;2023-07-31T12:08:24;8.50;;;2.73;;
80557;SDS011;69901;43.524;-5.636;2023-07-31T12:10:50;11.38;;;3.17;;
80557;SDS011;69901;43.524;-5.636;2023-07-31T12:13:20;7.30;;;2.97;;
80557;SDS011;69901;43.524;-5.636;2023-07-31T12:15:47;8.93;;;2.85;;
80557;SDS011;69901;43.524;-5.636;2023-07-31T12:18:13;7.03;;;2.17;;
80557;SDS011;69901;43.524;-5.636;2023-07-31T12:20:43;9.30;;;3.03;;
80557;SDS011;69901;43.524;-5.636;2023-07-31T12:23:17;8.40;;;2.65;;
80557;SDS011;69901;43.524;-5.636;2023-07-31T12:28:50;6.17;;;2.20;;
80557;SDS011;69901;43.524;-5.636;2023-07-31T12:31:17;6.80;;;2.20;;
80557;SDS011;69901;43.524;-5.636;2023-07-31T12:33:46;9.90;;;3.08;;
80557;SDS011;69901;43.524;-5.636;2023-07-31T12:36:13;8.93;;;2.45;;
80557;SDS011;69901;43.524;-5.636;2023-07-31T12:38:40;10.60;;;2.95;;
80557;SDS011;69901;43.524;-5.636;2023-07-31T12:41:06;10.13;;;3.03;;
80557;SDS011;69901;43.524;-5.636;2023-07-31T12:43:32;8.15;;;2.55;;
80557;SDS011;69901;43.524;-5.636;2023-07-31T12:45:58;8.77;;;3.03;;
80557;SDS011;69901;43.524;-5.636;2023-07-31T12:48:24;9.50;;;2.63;;
80557;SDS011;69901;43.524;-5.636;2023-07-31T12:50:49;10.48;;;3.15;;
80557;SDS011;69901;43.524;-5.636;2023-07-31T12:53:15;10.70;;;3.20;;
80557;SDS011;69901;43.524;-5.636;2023-07-31T12:55:41;10.00;;;3.50;;
80557;SDS011;69901;43.524;-5.636;2023-07-31T12:58:06;8.73;;;2.87;;
80557;SDS011;69901;43.524;-5.636;2023-07-31T13:00:31;8.73;;;2.47;;
80557;SDS011;69901;43.524;-5.636;2023-07-31T13:02:57;10.60;;;3.05;;
80557;SDS011;69901;43.524;-5.636;2023-07-31T13:05:23;10.30;;;2.80;;
80557;SDS011;69901;43.524;-5.636;2023-07-31T13:07:48;6.90;;;2.50;;
80557;SDS011;69901;43.524;-5.636;2023-07-31T13:10:14;8.73;;;2.95;;
80557;SDS011;69901;43.524;-5.636;2023-07-31T13:12:40;7.53;;;2.13;;
80557;SDS011;69901;43.524;-5.636;2023-07-31T13:15:06;6.05;;;2.28;;
80557;SDS011;69901;43.524;-5.636;2023-07-31T13:17:32;9.07;;;2.25;;
80557;SDS011;69901;43.524;-5.636;2023-07-31T13:19:57;7.77;;;2.20;;
80557;SDS011;69901;43.524;-5.636;2023-07-31T13:22:23;7.57;;;2.17;;
80557;SDS011;69901;43.524;-5.636;2023-07-31T13:24:48;6.80;;;1.90;;
80557;SDS011;69901;43.524;-5.636;2023-07-31T13:27:14;5.77;;;1.40;;
80557;SDS011;69901;43.524;-5.636;2023-07-31T13:29:43;5.60;;;1.80;;
80557;SDS011;69901;43.524;-5.636;2023-07-31T13:32:09;5.57;;;1.35;;
80557;SDS011;69901;43.524;-5.636;2023-07-31T13:34:35;6.10;;;1.90;;
80557;SDS011;69901;43.524;-5.636;2023-07-31T13:37:00;6.87;;;2.17;;
80557;SDS011;69901;43.524;-5.636;2023-07-31T13:39:26;6.17;;;1.80;;
80557;SDS011;69901;43.524;-5.636;2023-07-31T13:41:51;12.52;;;2.47;;
80557;SDS011;69901;43.524;-5.636;2023-07-31T13:44:16;8.13;;;1.73;;
80557;SDS011;69901;43.524;-5.636;2023-07-31T13:46:42;5.90;;;2.47;;
80557;SDS011;69901;43.524;-5.636;2023-07-31T13:49:07;7.67;;;2.20;;
80557;SDS011;69901;43.524;-5.636;2023-07-31T13:51:33;9.67;;;1.90;;
80557;SDS011;69901;43.524;-5.636;2023-07-31T13:53:58;6.45;;;1.85;;
80557;SDS011;69901;43.524;-5.636;2023-07-31T13:56:24;7.20;;;2.10;;
80557;SDS011;69901;43.524;-5.636;2023-07-31T13:58:49;8.23;;;2.60;;
80557;SDS011;69901;43.524;-5.636;2023-07-31T14:01:15;6.03;;;1.80;;
80557;SDS011;69901;43.524;-5.636;2023-07-31T14:03:40;6.63;;;2.00;;
80557;SDS011;69901;43.524;-5.636;2023-07-31T14:06:06;7.33;;;1.70;;
80557;SDS011;69901;43.524;-5.636;2023-07-31T14:08:31;6.77;;;1.93;;
80557;SDS011;69901;43.524;-5.636;2023-07-31T14:10:56;5.55;;;1.30;;
80557;SDS011;69901;43.524;-5.636;2023-07-31T14:13:22;8.40;;;2.27;;
80557;SDS011;69901;43.524;-5.636;2023-07-31T14:15:47;7.83;;;1.77;;
80557;SDS011;69901;43.524;-5.636;2023-07-31T14:18:13;7.27;;;2.17;;
80557;SDS011;69901;43.524;-5.636;2023-07-31T14:20:38;6.57;;;1.83;;
80557;SDS011;69901;43.524;-5.636;2023-07-31T14:23:04;6.70;;;2.20;;
80557;SDS011;69901;43.524;-5.636;2023-07-31T14:25:29;7.60;;;2.03;;
80557;SDS011;69901;43.524;-5.636;2023-07-31T14:27:55;6.90;;;2.40;;
80557;SDS011;69901;43.524;-5.636;2023-07-31T14:30:20;6.47;;;1.33;;
80557;SDS011;69901;43.524;-5.636;2023-07-31T14:32:46;8.30;;;2.23;;
80557;SDS011;69901;43.524;-5.636;2023-07-31T14:35:12;6.47;;;1.70;;